sensor_id;sensor_type;location;lat;lon;timestamp;temperature;humidity
50606;DHT22;36557;53.572;10.170;2022-12-28T00:01:16;5.00;99.90
50606;DHT22;36557;53.572;10.170;2022-12-28T00:03:43;5.00;99.90
50606;DHT22;36557;53.572;10.170;2022-12-28T00:06:11;5.00;99.90
50606;DHT22;36557;53.572;10.170;2022-12-28T00:08:37;5.00;99.90
50606;DHT22;36557;53.572;10.170;2022-12-28T00:11:05;5.00;99.90
50606;DHT22;36557;53.572;10.170;2022-12-28T00:13:32;4.90;99.90
50606;DHT22;36557;53.572;10.170;2022-12-28T00:16:05;4.90;99.90
50606;DHT22;36557;53.572;10.170;2022-12-28T00:18:35;4.90;99.90
50606;DHT22;36557;53.572;10.170;2022-12-28T00:21:02;4.90;99.90
50606;DHT22;36557;53.572;10.170;2022-12-28T00:23:28;4.90;99.90
50606;DHT22;36557;53.572;10.170;2022-12-28T00:25:54;5.00;99.90
50606;DHT22;36557;53.572;10.170;2022-12-28T00:28:20;4.90;99.90
50606;DHT22;36557;53.572;10.170;2022-12-28T00:30:46;4.90;99.90
50606;DHT22;36557;53.572;10.170;2022-12-28T00:33:12;4.90;99.90
50606;DHT22;36557;53.572;10.170;2022-12-28T00:35:38;4.90;99.90
50606;DHT22;36557;53.572;10.170;2022-12-28T00:38:03;4.90;99.90
50606;DHT22;36557;53.572;10.170;2022-12-28T00:40:29;4.90;99.90
50606;DHT22;36557;53.572;10.170;2022-12-28T00:42:55;4.90;99.90
50606;DHT22;36557;53.572;10.170;2022-12-28T00:45:20;4.90;99.90
50606;DHT22;36557;53.572;10.170;2022-12-28T00:47:46;4.90;99.90
50606;DHT22;36557;53.572;10.170;2022-12-28T00:50:12;4.90;99.90
50606;DHT22;36557;53.572;10.170;2022-12-28T00:52:38;5.00;99.90
50606;DHT22;36557;53.572;10.170;2022-12-28T00:55:03;5.00;99.90
50606;DHT22;36557;53.572;10.170;2022-12-28T00:57:30;4.90;99.90
50606;DHT22;36557;53.572;10.170;2022-12-28T00:59:56;4.90;99.90
50606;DHT22;36557;53.572;10.170;2022-12-28T01:02:22;4.90;99.90
50606;DHT22;36557;53.572;10.170;2022-12-28T01:04:47;4.90;99.90
50606;DHT22;36557;53.572;10.170;2022-12-28T01:07:13;4.90;99.90
50606;DHT22;36557;53.572;10.170;2022-12-28T01:09:39;4.90;99.90
50606;DHT22;36557;53.572;10.170;2022-12-28T01:12:04;4.90;99.90
50606;DHT22;36557;53.572;10.170;2022-12-28T01:14:31;4.90;99.90
50606;DHT22;36557;53.572;10.170;2022-12-28T01:16:57;4.80;99.90
50606;DHT22;36557;53.572;10.170;2022-12-28T01:19:23;4.80;99.90
50606;DHT22;36557;53.572;10.170;2022-12-28T01:21:50;4.80;99.90
50606;DHT22;36557;53.572;10.170;2022-12-28T01:24:17;4.90;99.90
50606;DHT22;36557;53.572;10.170;2022-12-28T01:26:43;4.90;99.90
50606;DHT22;36557;53.572;10.170;2022-12-28T01:29:08;4.80;99.90
50606;DHT22;36557;53.572;10.170;2022-12-28T01:31:34;4.80;99.90
50606;DHT22;36557;53.572;10.170;2022-12-28T01:34:00;4.90;99.90
50606;DHT22;36557;53.572;10.170;2022-12-28T01:36:29;4.90;99.90
50606;DHT22;36557;53.572;10.170;2022-12-28T01:39:00;4.80;99.90
50606;DHT22;36557;53.572;10.170;2022-12-28T01:41:28;4.90;99.90
50606;DHT22;36557;53.572;10.170;2022-12-28T01:46:40;4.80;99.90
50606;DHT22;36557;53.572;10.170;2022-12-28T01:54:18;4.90;99.90
50606;DHT22;36557;53.572;10.170;2022-12-28T01:56:44;4.80;99.90
50606;DHT22;36557;53.572;10.170;2022-12-28T01:59:11;4.80;99.90
50606;DHT22;36557;53.572;10.170;2022-12-28T02:01:36;4.80;99.90
50606;DHT22;36557;53.572;10.170;2022-12-28T02:04:03;4.90;99.90
50606;DHT22;36557;53.572;10.170;2022-12-28T02:06:29;4.80;99.90
50606;DHT22;36557;53.572;10.170;2022-12-28T02:09:13;4.90;99.90
50606;DHT22;36557;53.572;10.170;2022-12-28T02:11:40;4.90;99.90
50606;DHT22;36557;53.572;10.170;2022-12-28T02:14:06;5.00;99.90
50606;DHT22;36557;53.572;10.170;2022-12-28T02:16:32;5.00;99.90
50606;DHT22;36557;53.572;10.170;2022-12-28T02:18:58;5.00;99.90
50606;DHT22;36557;53.572;10.170;2022-12-28T02:30:10;4.90;99.90
50606;DHT22;36557;53.572;10.170;2022-12-28T02:37:48;4.90;99.90
50606;DHT22;36557;53.572;10.170;2022-12-28T02:40:58;4.90;99.90
50606;DHT22;36557;53.572;10.170;2022-12-28T02:43:25;5.00;99.90
50606;DHT22;36557;53.572;10.170;2022-12-28T02:45:51;5.10;99.90
50606;DHT22;36557;53.572;10.170;2022-12-28T02:48:40;5.10;99.90
50606;DHT22;36557;53.572;10.170;2022-12-28T02:51:56;5.00;99.90
50606;DHT22;36557;53.572;10.170;2022-12-28T02:54:28;5.10;99.90
50606;DHT22;36557;53.572;10.170;2022-12-28T03:00:38;5.10;99.90
50606;DHT22;36557;53.572;10.170;2022-12-28T03:03:38;5.10;99.90
50606;DHT22;36557;53.572;10.170;2022-12-28T03:12:23;5.10;99.90
50606;DHT22;36557;53.572;10.170;2022-12-28T03:15:05;5.00;99.90
50606;DHT22;36557;53.572;10.170;2022-12-28T03:17:34;4.90;99.90
50606;DHT22;36557;53.572;10.170;2022-12-28T03:20:26;5.00;99.90
50606;DHT22;36557;53.572;10.170;2022-12-28T03:23:15;4.90;99.90
50606;DHT22;36557;53.572;10.170;2022-12-28T03:26:01;4.90;99.90
50606;DHT22;36557;53.572;10.170;2022-12-28T03:28:46;4.90;99.90
50606;DHT22;36557;53.572;10.170;2022-12-28T03:31:34;4.90;99.90
50606;DHT22;36557;53.572;10.170;2022-12-28T03:34:01;4.90;99.90
50606;DHT22;36557;53.572;10.170;2022-12-28T03:36:55;4.80;99.90
50606;DHT22;36557;53.572;10.170;2022-12-28T03:39:40;4.80;99.90
50606;DHT22;36557;53.572;10.170;2022-12-28T03:47:42;4.70;99.90
50606;DHT22;36557;53.572;10.170;2022-12-28T03:50:10;4.60;99.90
50606;DHT22;36557;53.572;10.170;2022-12-28T03:52:35;4.60;99.90
50606;DHT22;36557;53.572;10.170;2022-12-28T03:55:01;4.50;99.90
50606;DHT22;36557;53.572;10.170;2022-12-28T03:57:27;4.40;99.90
50606;DHT22;36557;53.572;10.170;2022-12-28T03:59:53;4.40;99.90
50606;DHT22;36557;53.572;10.170;2022-12-28T04:02:19;4.40;99.90
50606;DHT22;36557;53.572;10.170;2022-12-28T04:04:44;4.30;99.90
50606;DHT22;36557;53.572;10.170;2022-12-28T04:07:10;4.30;99.90
50606;DHT22;36557;53.572;10.170;2022-12-28T04:09:36;4.30;99.90
50606;DHT22;36557;53.572;10.170;2022-12-28T04:12:02;4.30;99.90
50606;DHT22;36557;53.572;10.170;2022-12-28T04:14:27;4.20;99.90
50606;DHT22;36557;53.572;10.170;2022-12-28T04:16:53;4.20;99.90
50606;DHT22;36557;53.572;10.170;2022-12-28T04:19:19;4.20;99.90
50606;DHT22;36557;53.572;10.170;2022-12-28T04:21:47;4.20;99.90
50606;DHT22;36557;53.572;10.170;2022-12-28T04:24:13;4.20;99.90
50606;DHT22;36557;53.572;10.170;2022-12-28T04:26:39;4.10;99.90
50606;DHT22;36557;53.572;10.170;2022-12-28T04:29:04;4.10;99.90
50606;DHT22;36557;53.572;10.170;2022-12-28T04:31:30;4.10;99.90
50606;DHT22;36557;53.572;10.170;2022-12-28T04:33:57;4.10;99.90
50606;DHT22;36557;53.572;10.170;2022-12-28T04:36:23;4.10;99.90
50606;DHT22;36557;53.572;10.170;2022-12-28T04:38:49;4.10;99.90
50606;DHT22;36557;53.572;10.170;2022-12-28T04:41:14;4.10;99.90
50606;DHT22;36557;53.572;10.170;2022-12-28T04:43:40;4.10;99.90
50606;DHT22;36557;53.572;10.170;2022-12-28T04:46:14;4.10;99.90
50606;DHT22;36557;53.572;10.170;2022-12-28T04:48:40;4.00;99.90
50606;DHT22;36557;53.572;10.170;2022-12-28T04:51:19;4.10;99.90
50606;DHT22;36557;53.572;10.170;2022-12-28T04:53:45;4.10;99.90
50606;DHT22;36557;53.572;10.170;2022-12-28T04:56:12;4.00;99.90
50606;DHT22;36557;53.572;10.170;2022-12-28T04:58:38;4.00;99.90
50606;DHT22;36557;53.572;10.170;2022-12-28T05:01:11;4.00;99.90
50606;DHT22;36557;53.572;10.170;2022-12-28T05:03:39;4.10;99.90
50606;DHT22;36557;53.572;10.170;2022-12-28T05:06:08;4.10;99.90
50606;DHT22;36557;53.572;10.170;2022-12-28T05:08:36;4.00;99.90
50606;DHT22;36557;53.572;10.170;2022-12-28T05:11:04;4.00;99.90
50606;DHT22;36557;53.572;10.170;2022-12-28T05:13:31;4.00;99.90
50606;DHT22;36557;53.572;10.170;2022-12-28T05:16:01;4.00;99.90
50606;DHT22;36557;53.572;10.170;2022-12-28T05:18:27;4.00;99.90
50606;DHT22;36557;53.572;10.170;2022-12-28T05:21:20;4.00;99.90
50606;DHT22;36557;53.572;10.170;2022-12-28T05:23:47;4.10;99.90
50606;DHT22;36557;53.572;10.170;2022-12-28T05:26:15;4.00;99.90
50606;DHT22;36557;53.572;10.170;2022-12-28T05:28:41;4.00;99.90
50606;DHT22;36557;53.572;10.170;2022-12-28T05:31:13;4.00;99.90
50606;DHT22;36557;53.572;10.170;2022-12-28T05:33:40;4.00;99.90
50606;DHT22;36557;53.572;10.170;2022-12-28T05:36:08;4.10;99.90
50606;DHT22;36557;53.572;10.170;2022-12-28T05:38:35;4.00;99.90
50606;DHT22;36557;53.572;10.170;2022-12-28T05:41:18;4.00;99.90
50606;DHT22;36557;53.572;10.170;2022-12-28T05:43:45;4.10;99.90
50606;DHT22;36557;53.572;10.170;2022-12-28T05:46:14;4.20;99.90
50606;DHT22;36557;53.572;10.170;2022-12-28T05:48:41;4.10;99.90
50606;DHT22;36557;53.572;10.170;2022-12-28T05:51:10;4.20;99.90
50606;DHT22;36557;53.572;10.170;2022-12-28T05:53:37;4.10;99.90
50606;DHT22;36557;53.572;10.170;2022-12-28T05:56:05;4.20;99.90
50606;DHT22;36557;53.572;10.170;2022-12-28T05:58:31;4.20;99.90
50606;DHT22;36557;53.572;10.170;2022-12-28T06:01:08;4.20;99.90
50606;DHT22;36557;53.572;10.170;2022-12-28T06:03:35;4.30;99.90
50606;DHT22;36557;53.572;10.170;2022-12-28T06:06:31;4.30;99.90
50606;DHT22;36557;53.572;10.170;2022-12-28T06:08:56;4.40;99.90
50606;DHT22;36557;53.572;10.170;2022-12-28T06:11:26;4.40;99.90
50606;DHT22;36557;53.572;10.170;2022-12-28T06:13:52;4.40;99.90
50606;DHT22;36557;53.572;10.170;2022-12-28T06:16:20;4.40;99.90
50606;DHT22;36557;53.572;10.170;2022-12-28T06:18:46;4.40;99.90
50606;DHT22;36557;53.572;10.170;2022-12-28T06:21:19;4.50;99.90
50606;DHT22;36557;53.572;10.170;2022-12-28T06:23:45;4.40;99.90
50606;DHT22;36557;53.572;10.170;2022-12-28T06:26:14;4.50;99.90
50606;DHT22;36557;53.572;10.170;2022-12-28T06:28:41;4.50;99.90
50606;DHT22;36557;53.572;10.170;2022-12-28T06:33:40;4.50;99.90
50606;DHT22;36557;53.572;10.170;2022-12-28T06:36:45;4.60;99.90
50606;DHT22;36557;53.572;10.170;2022-12-28T06:39:12;4.50;99.90
50606;DHT22;36557;53.572;10.170;2022-12-28T06:41:39;4.60;99.90
50606;DHT22;36557;53.572;10.170;2022-12-28T06:44:07;4.60;99.90
50606;DHT22;36557;53.572;10.170;2022-12-28T06:46:33;4.70;99.90
50606;DHT22;36557;53.572;10.170;2022-12-28T06:48:59;4.60;99.90
50606;DHT22;36557;53.572;10.170;2022-12-28T06:51:30;4.70;99.90
50606;DHT22;36557;53.572;10.170;2022-12-28T06:53:57;4.70;99.90
50606;DHT22;36557;53.572;10.170;2022-12-28T06:56:25;4.70;99.90
50606;DHT22;36557;53.572;10.170;2022-12-28T06:58:52;4.70;99.90
50606;DHT22;36557;53.572;10.170;2022-12-28T07:01:27;4.70;99.90
50606;DHT22;36557;53.572;10.170;2022-12-28T07:03:54;4.80;99.90
50606;DHT22;36557;53.572;10.170;2022-12-28T07:06:22;4.90;99.90
50606;DHT22;36557;53.572;10.170;2022-12-28T07:08:49;4.90;99.90
50606;DHT22;36557;53.572;10.170;2022-12-28T07:11:20;4.90;99.90
50606;DHT22;36557;53.572;10.170;2022-12-28T07:13:47;5.00;99.90
50606;DHT22;36557;53.572;10.170;2022-12-28T07:16:15;5.00;99.90
50606;DHT22;36557;53.572;10.170;2022-12-28T07:18:42;5.00;99.90
50606;DHT22;36557;53.572;10.170;2022-12-28T07:21:13;4.90;99.90
50606;DHT22;36557;53.572;10.170;2022-12-28T07:23:39;5.00;99.90
50606;DHT22;36557;53.572;10.170;2022-12-28T07:26:10;5.00;99.90
50606;DHT22;36557;53.572;10.170;2022-12-28T07:28:40;5.10;99.90
50606;DHT22;36557;53.572;10.170;2022-12-28T07:31:27;5.10;99.90
50606;DHT22;36557;53.572;10.170;2022-12-28T07:33:54;5.10;99.90
50606;DHT22;36557;53.572;10.170;2022-12-28T07:36:22;5.30;99.90
50606;DHT22;36557;53.572;10.170;2022-12-28T07:38:48;5.20;99.90
50606;DHT22;36557;53.572;10.170;2022-12-28T07:41:16;5.30;99.90
50606;DHT22;36557;53.572;10.170;2022-12-28T07:43:42;5.30;99.90
50606;DHT22;36557;53.572;10.170;2022-12-28T07:46:15;5.30;99.90
50606;DHT22;36557;53.572;10.170;2022-12-28T07:48:42;5.40;99.90
50606;DHT22;36557;53.572;10.170;2022-12-28T07:53:39;5.40;99.90
50606;DHT22;36557;53.572;10.170;2022-12-28T07:56:06;5.40;99.90
50606;DHT22;36557;53.572;10.170;2022-12-28T07:58:32;5.40;99.90
50606;DHT22;36557;53.572;10.170;2022-12-28T08:01:13;5.50;99.90
50606;DHT22;36557;53.572;10.170;2022-12-28T08:03:40;5.50;99.90
50606;DHT22;36557;53.572;10.170;2022-12-28T08:06:12;5.60;99.90
50606;DHT22;36557;53.572;10.170;2022-12-28T08:08:41;5.60;99.90
50606;DHT22;36557;53.572;10.170;2022-12-28T08:11:15;5.60;99.90
50606;DHT22;36557;53.572;10.170;2022-12-28T08:13:43;5.60;99.90
50606;DHT22;36557;53.572;10.170;2022-12-28T08:16:11;5.70;99.90
50606;DHT22;36557;53.572;10.170;2022-12-28T08:18:37;5.70;99.90
50606;DHT22;36557;53.572;10.170;2022-12-28T08:21:22;5.70;99.90
50606;DHT22;36557;53.572;10.170;2022-12-28T08:23:49;5.80;99.90
50606;DHT22;36557;53.572;10.170;2022-12-28T08:26:26;5.80;99.90
50606;DHT22;36557;53.572;10.170;2022-12-28T08:28:55;5.80;99.90
50606;DHT22;36557;53.572;10.170;2022-12-28T08:31:24;5.80;99.90
50606;DHT22;36557;53.572;10.170;2022-12-28T08:33:51;5.80;99.90
50606;DHT22;36557;53.572;10.170;2022-12-28T08:36:17;5.90;99.90
50606;DHT22;36557;53.572;10.170;2022-12-28T08:38:44;5.90;99.90
50606;DHT22;36557;53.572;10.170;2022-12-28T08:41:16;6.00;99.90
50606;DHT22;36557;53.572;10.170;2022-12-28T08:43:43;6.00;99.90
50606;DHT22;36557;53.572;10.170;2022-12-28T08:48:41;6.10;99.90
50606;DHT22;36557;53.572;10.170;2022-12-28T08:51:13;6.10;99.90
50606;DHT22;36557;53.572;10.170;2022-12-28T08:53:39;6.10;99.90
50606;DHT22;36557;53.572;10.170;2022-12-28T08:58:32;6.20;99.90
50606;DHT22;36557;53.572;10.170;2022-12-28T09:01:17;6.30;99.90
50606;DHT22;36557;53.572;10.170;2022-12-28T09:03:44;6.40;99.90
50606;DHT22;36557;53.572;10.170;2022-12-28T09:06:13;6.40;99.90
50606;DHT22;36557;53.572;10.170;2022-12-28T09:08:40;6.30;99.90
50606;DHT22;36557;53.572;10.170;2022-12-28T09:11:09;6.40;99.90
50606;DHT22;36557;53.572;10.170;2022-12-28T09:13:35;6.40;99.90
50606;DHT22;36557;53.572;10.170;2022-12-28T09:16:06;6.40;99.90
50606;DHT22;36557;53.572;10.170;2022-12-28T09:18:33;6.60;99.90
50606;DHT22;36557;53.572;10.170;2022-12-28T09:21:17;6.60;99.90
50606;DHT22;36557;53.572;10.170;2022-12-28T09:23:44;6.60;99.90
50606;DHT22;36557;53.572;10.170;2022-12-28T09:26:11;6.80;99.90
50606;DHT22;36557;53.572;10.170;2022-12-28T09:28:38;6.70;99.90
50606;DHT22;36557;53.572;10.170;2022-12-28T09:31:06;6.70;99.90
50606;DHT22;36557;53.572;10.170;2022-12-28T09:33:33;6.80;99.90
50606;DHT22;36557;53.572;10.170;2022-12-28T09:36:17;6.80;99.90
50606;DHT22;36557;53.572;10.170;2022-12-28T09:38:44;6.90;99.90
50606;DHT22;36557;53.572;10.170;2022-12-28T09:41:29;6.80;99.90
50606;DHT22;36557;53.572;10.170;2022-12-28T09:55:29;7.20;99.90
50606;DHT22;36557;53.572;10.170;2022-12-28T09:57:57;7.20;99.90
50606;DHT22;36557;53.572;10.170;2022-12-28T10:03:06;7.20;99.90
50606;DHT22;36557;53.572;10.170;2022-12-28T10:05:35;7.30;99.90
50606;DHT22;36557;53.572;10.170;2022-12-28T10:08:01;7.30;99.90
50606;DHT22;36557;53.572;10.170;2022-12-28T10:10:28;7.30;99.90
50606;DHT22;36557;53.572;10.170;2022-12-28T10:12:55;7.40;99.90
50606;DHT22;36557;53.572;10.170;2022-12-28T10:15:25;7.40;99.90
50606;DHT22;36557;53.572;10.170;2022-12-28T10:17:51;7.40;99.90
50606;DHT22;36557;53.572;10.170;2022-12-28T10:20:19;7.40;99.90
50606;DHT22;36557;53.572;10.170;2022-12-28T10:22:50;7.40;99.90
50606;DHT22;36557;53.572;10.170;2022-12-28T10:25:21;7.40;99.90
50606;DHT22;36557;53.572;10.170;2022-12-28T10:27:47;7.50;99.90
50606;DHT22;36557;53.572;10.170;2022-12-28T10:30:18;7.50;99.90
50606;DHT22;36557;53.572;10.170;2022-12-28T10:32:50;7.50;99.90
50606;DHT22;36557;53.572;10.170;2022-12-28T10:35:25;7.60;99.90
50606;DHT22;36557;53.572;10.170;2022-12-28T10:37:52;7.60;99.90
50606;DHT22;36557;53.572;10.170;2022-12-28T10:40:25;7.60;99.90
50606;DHT22;36557;53.572;10.170;2022-12-28T10:42:53;7.70;99.90
50606;DHT22;36557;53.572;10.170;2022-12-28T10:45:37;7.60;99.90
50606;DHT22;36557;53.572;10.170;2022-12-28T10:48:15;7.70;99.90
50606;DHT22;36557;53.572;10.170;2022-12-28T10:53:22;7.80;99.90
50606;DHT22;36557;53.572;10.170;2022-12-28T10:55:48;7.80;99.90
50606;DHT22;36557;53.572;10.170;2022-12-28T10:58:21;7.80;99.90
50606;DHT22;36557;53.572;10.170;2022-12-28T11:01:16;7.80;99.90
50606;DHT22;36557;53.572;10.170;2022-12-28T11:04:02;7.80;99.90
50606;DHT22;36557;53.572;10.170;2022-12-28T11:06:33;7.90;99.90
50606;DHT22;36557;53.572;10.170;2022-12-28T11:09:04;7.90;99.90
50606;DHT22;36557;53.572;10.170;2022-12-28T11:11:33;7.80;99.90
50606;DHT22;36557;53.572;10.170;2022-12-28T11:14:02;7.80;99.90
50606;DHT22;36557;53.572;10.170;2022-12-28T11:16:32;7.90;99.90
50606;DHT22;36557;53.572;10.170;2022-12-28T11:18:59;8.00;99.90
50606;DHT22;36557;53.572;10.170;2022-12-28T11:21:25;8.00;99.90
50606;DHT22;36557;53.572;10.170;2022-12-28T11:23:51;8.00;99.90
50606;DHT22;36557;53.572;10.170;2022-12-28T11:26:19;8.10;99.90
50606;DHT22;36557;53.572;10.170;2022-12-28T11:28:48;8.00;99.90
50606;DHT22;36557;53.572;10.170;2022-12-28T11:31:33;8.10;99.90
50606;DHT22;36557;53.572;10.170;2022-12-28T11:34:01;8.00;99.90
50606;DHT22;36557;53.572;10.170;2022-12-28T11:36:30;8.10;99.90
50606;DHT22;36557;53.572;10.170;2022-12-28T11:38:57;8.10;99.90
50606;DHT22;36557;53.572;10.170;2022-12-28T11:43:53;8.10;99.90
50606;DHT22;36557;53.572;10.170;2022-12-28T11:51:21;8.00;99.90
50606;DHT22;36557;53.572;10.170;2022-12-28T11:53:54;8.00;99.90
50606;DHT22;36557;53.572;10.170;2022-12-28T11:56:55;8.00;99.90
50606;DHT22;36557;53.572;10.170;2022-12-28T11:59:25;8.00;99.90
50606;DHT22;36557;53.572;10.170;2022-12-28T12:01:59;8.00;99.90
50606;DHT22;36557;53.572;10.170;2022-12-28T12:09:40;8.00;99.90
50606;DHT22;36557;53.572;10.170;2022-12-28T12:14:50;8.00;99.90
50606;DHT22;36557;53.572;10.170;2022-12-28T12:17:29;8.00;99.90
50606;DHT22;36557;53.572;10.170;2022-12-28T12:20:00;8.00;99.90
50606;DHT22;36557;53.572;10.170;2022-12-28T12:25:40;8.00;99.90
50606;DHT22;36557;53.572;10.170;2022-12-28T12:30:41;8.00;99.90
50606;DHT22;36557;53.572;10.170;2022-12-28T12:33:22;7.90;99.90
50606;DHT22;36557;53.572;10.170;2022-12-28T12:41:30;8.00;99.90
50606;DHT22;36557;53.572;10.170;2022-12-28T12:53:19;8.10;99.90
50606;DHT22;36557;53.572;10.170;2022-12-28T12:58:12;8.10;99.90
50606;DHT22;36557;53.572;10.170;2022-12-28T13:00:53;8.10;99.90
50606;DHT22;36557;53.572;10.170;2022-12-28T13:05:55;8.10;99.90
50606;DHT22;36557;53.572;10.170;2022-12-28T13:08:29;8.10;99.90
50606;DHT22;36557;53.572;10.170;2022-12-28T13:10:57;8.20;99.90
50606;DHT22;36557;53.572;10.170;2022-12-28T13:13:32;8.20;99.90
50606;DHT22;36557;53.572;10.170;2022-12-28T13:16:02;8.20;99.90
50606;DHT22;36557;53.572;10.170;2022-12-28T13:18:30;8.10;99.90
50606;DHT22;36557;53.572;10.170;2022-12-28T13:20:58;8.10;99.90
50606;DHT22;36557;53.572;10.170;2022-12-28T13:23:25;8.20;99.90
50606;DHT22;36557;53.572;10.170;2022-12-28T13:26:00;8.20;99.90
50606;DHT22;36557;53.572;10.170;2022-12-28T13:28:31;8.20;99.90
50606;DHT22;36557;53.572;10.170;2022-12-28T13:31:19;8.10;99.90
50606;DHT22;36557;53.572;10.170;2022-12-28T13:33:59;8.10;99.90
50606;DHT22;36557;53.572;10.170;2022-12-28T13:36:25;8.20;99.90
50606;DHT22;36557;53.572;10.170;2022-12-28T13:41:33;8.20;99.90
50606;DHT22;36557;53.572;10.170;2022-12-28T13:44:17;8.20;99.90
50606;DHT22;36557;53.572;10.170;2022-12-28T13:46:50;8.10;99.90
50606;DHT22;36557;53.572;10.170;2022-12-28T13:49:19;8.20;99.90
50606;DHT22;36557;53.572;10.170;2022-12-28T13:51:46;8.20;99.90
50606;DHT22;36557;53.572;10.170;2022-12-28T13:54:13;8.20;99.90
50606;DHT22;36557;53.572;10.170;2022-12-28T13:56:40;8.20;99.90
50606;DHT22;36557;53.572;10.170;2022-12-28T13:59:10;8.30;99.90
50606;DHT22;36557;53.572;10.170;2022-12-28T14:01:42;8.20;99.90
50606;DHT22;36557;53.572;10.170;2022-12-28T14:04:19;8.20;99.90
50606;DHT22;36557;53.572;10.170;2022-12-28T14:06:45;8.20;99.90
50606;DHT22;36557;53.572;10.170;2022-12-28T14:09:12;8.10;99.90
50606;DHT22;36557;53.572;10.170;2022-12-28T14:11:41;8.20;99.90
50606;DHT22;36557;53.572;10.170;2022-12-28T14:14:08;8.30;99.90
50606;DHT22;36557;53.572;10.170;2022-12-28T14:16:34;8.20;99.90
50606;DHT22;36557;53.572;10.170;2022-12-28T14:19:03;8.20;99.90
50606;DHT22;36557;53.572;10.170;2022-12-28T14:21:33;8.10;99.90
50606;DHT22;36557;53.572;10.170;2022-12-28T14:24:13;8.10;99.90
50606;DHT22;36557;53.572;10.170;2022-12-28T14:26:53;8.20;99.90
50606;DHT22;36557;53.572;10.170;2022-12-28T14:29:30;8.10;99.90
50606;DHT22;36557;53.572;10.170;2022-12-28T14:31:58;8.10;99.90
50606;DHT22;36557;53.572;10.170;2022-12-28T14:34:30;8.20;99.90
50606;DHT22;36557;53.572;10.170;2022-12-28T14:36:57;8.10;99.90
50606;DHT22;36557;53.572;10.170;2022-12-28T14:39:32;8.10;99.90
50606;DHT22;36557;53.572;10.170;2022-12-28T14:42:04;8.20;99.90
50606;DHT22;36557;53.572;10.170;2022-12-28T14:44:32;8.20;99.90
50606;DHT22;36557;53.572;10.170;2022-12-28T14:47:00;8.10;99.90
50606;DHT22;36557;53.572;10.170;2022-12-28T14:54:47;8.10;99.90
50606;DHT22;36557;53.572;10.170;2022-12-28T14:57:36;8.10;99.90
50606;DHT22;36557;53.572;10.170;2022-12-28T15:00:21;8.10;99.90
50606;DHT22;36557;53.572;10.170;2022-12-28T15:02:47;8.00;99.90
50606;DHT22;36557;53.572;10.170;2022-12-28T15:07:58;8.10;99.90
50606;DHT22;36557;53.572;10.170;2022-12-28T15:10:24;8.00;99.90
50606;DHT22;36557;53.572;10.170;2022-12-28T15:12:50;8.10;99.90
50606;DHT22;36557;53.572;10.170;2022-12-28T15:15:16;8.10;99.90
50606;DHT22;36557;53.572;10.170;2022-12-28T15:17:42;8.00;99.90
50606;DHT22;36557;53.572;10.170;2022-12-28T15:20:08;8.10;99.90
50606;DHT22;36557;53.572;10.170;2022-12-28T15:22:33;8.00;99.90
50606;DHT22;36557;53.572;10.170;2022-12-28T15:24:59;8.00;99.90
50606;DHT22;36557;53.572;10.170;2022-12-28T15:27:25;8.00;99.90
50606;DHT22;36557;53.572;10.170;2022-12-28T15:29:50;8.00;99.90
50606;DHT22;36557;53.572;10.170;2022-12-28T15:32:16;8.00;99.90
50606;DHT22;36557;53.572;10.170;2022-12-28T15:34:42;8.10;99.90
50606;DHT22;36557;53.572;10.170;2022-12-28T15:37:07;8.10;99.90
50606;DHT22;36557;53.572;10.170;2022-12-28T15:39:33;8.00;99.90
50606;DHT22;36557;53.572;10.170;2022-12-28T15:41:59;8.10;99.90
50606;DHT22;36557;53.572;10.170;2022-12-28T15:44:24;8.00;99.90
50606;DHT22;36557;53.572;10.170;2022-12-28T15:46:50;8.10;99.90
50606;DHT22;36557;53.572;10.170;2022-12-28T15:49:17;8.00;99.90
50606;DHT22;36557;53.572;10.170;2022-12-28T15:51:43;8.10;99.90
50606;DHT22;36557;53.572;10.170;2022-12-28T15:54:11;8.10;99.90
50606;DHT22;36557;53.572;10.170;2022-12-28T15:56:38;8.10;99.90
50606;DHT22;36557;53.572;10.170;2022-12-28T15:59:09;8.10;99.90
50606;DHT22;36557;53.572;10.170;2022-12-28T16:01:36;8.10;99.90
50606;DHT22;36557;53.572;10.170;2022-12-28T16:04:03;8.10;99.90
50606;DHT22;36557;53.572;10.170;2022-12-28T16:06:30;8.10;99.90
50606;DHT22;36557;53.572;10.170;2022-12-28T16:08:58;8.00;99.90
50606;DHT22;36557;53.572;10.170;2022-12-28T16:11:24;8.00;99.90
50606;DHT22;36557;53.572;10.170;2022-12-28T16:13:52;8.00;99.90
50606;DHT22;36557;53.572;10.170;2022-12-28T16:16:19;8.10;99.90
50606;DHT22;36557;53.572;10.170;2022-12-28T16:18:45;8.10;99.90
50606;DHT22;36557;53.572;10.170;2022-12-28T16:21:11;8.10;99.90
50606;DHT22;36557;53.572;10.170;2022-12-28T16:23:39;8.10;99.90
50606;DHT22;36557;53.572;10.170;2022-12-28T16:26:06;8.10;99.90
50606;DHT22;36557;53.572;10.170;2022-12-28T16:28:33;8.10;99.90
50606;DHT22;36557;53.572;10.170;2022-12-28T16:30:59;8.20;99.90
50606;DHT22;36557;53.572;10.170;2022-12-28T16:33:24;8.20;99.90
50606;DHT22;36557;53.572;10.170;2022-12-28T16:35:51;8.10;99.90
50606;DHT22;36557;53.572;10.170;2022-12-28T16:38:19;8.10;99.90
50606;DHT22;36557;53.572;10.170;2022-12-28T16:40:45;8.20;99.90
50606;DHT22;36557;53.572;10.170;2022-12-28T16:43:12;8.20;99.90
50606;DHT22;36557;53.572;10.170;2022-12-28T16:45:40;8.10;99.90
50606;DHT22;36557;53.572;10.170;2022-12-28T16:48:08;8.20;99.90
50606;DHT22;36557;53.572;10.170;2022-12-28T16:50:34;8.20;99.90
50606;DHT22;36557;53.572;10.170;2022-12-28T16:53:00;8.20;99.90
50606;DHT22;36557;53.572;10.170;2022-12-28T16:55:27;8.20;99.90
50606;DHT22;36557;53.572;10.170;2022-12-28T16:57:52;8.10;99.90
50606;DHT22;36557;53.572;10.170;2022-12-28T17:00:18;8.20;99.90
50606;DHT22;36557;53.572;10.170;2022-12-28T17:02:44;8.20;99.90
50606;DHT22;36557;53.572;10.170;2022-12-28T17:05:10;8.20;99.90
50606;DHT22;36557;53.572;10.170;2022-12-28T17:07:35;8.20;99.90
50606;DHT22;36557;53.572;10.170;2022-12-28T17:10:01;8.10;99.90
50606;DHT22;36557;53.572;10.170;2022-12-28T17:12:27;8.20;99.90
50606;DHT22;36557;53.572;10.170;2022-12-28T17:14:52;8.10;99.90
50606;DHT22;36557;53.572;10.170;2022-12-28T17:17:18;8.10;99.90
50606;DHT22;36557;53.572;10.170;2022-12-28T17:19:44;8.00;99.90
50606;DHT22;36557;53.572;10.170;2022-12-28T17:22:10;8.10;99.90
50606;DHT22;36557;53.572;10.170;2022-12-28T17:24:37;8.10;99.90
50606;DHT22;36557;53.572;10.170;2022-12-28T17:27:02;8.10;99.90
50606;DHT22;36557;53.572;10.170;2022-12-28T17:29:28;8.00;99.90
50606;DHT22;36557;53.572;10.170;2022-12-28T17:31:54;8.00;99.90
50606;DHT22;36557;53.572;10.170;2022-12-28T17:34:20;8.10;99.90
50606;DHT22;36557;53.572;10.170;2022-12-28T17:36:46;8.00;99.90
50606;DHT22;36557;53.572;10.170;2022-12-28T17:39:11;8.00;99.90
50606;DHT22;36557;53.572;10.170;2022-12-28T17:41:37;7.90;99.90